Hinton, Missouri
Current Conditions -  °F | °C
As of 1:19 AM on Friday 19 Dec 2014 (Local Time) from KCOU Reporting Station
Haze Haze  
Wind Chill: 27°   Ceiling: 400
Heat Index: 32°   Visibility: 4mi
Dew Point: 30°   Wind: 5mph
Humidity: 92%   Direction: 80°E
Pressure: 30.26"   Gusts: NA
Location:  39.0235°N, 92.2896°W
Report Text: KCOU 190719Z AUTO 08004KT 4SM BR OVC004 00/M01 A3026 RMK AO2 T00001011
Loading
Personal Weather Stations






























Interactive Weather Map New forecast layout! Learn more

10-Day Weather Forecast

Advertisements
Track Severe Weather on mobile